Time;durP1;ratioP1;P1;durP2;ratioP2;P2;SDS_P1;SDS_P2;PMS_P1;PMS_P2;Temp;Humidity;BMP_temperature;BMP_pressure;BME280_temperature;BME280_humidity;BME280_pressure;Samples;Min_cycle;Max_cycle;Signal;HPM_P1;HPM_P2
2022/02/10 00:07:25;;;;;;;85.20;40.20;;;8.40;99.90;;;;;;4945062;28;20148;-56
2022/02/10 00:20:44;;;;;;;95.43;38.65;;;8.40;99.90;;;;;;4920678;28;20044;-55
2022/02/10 00:36:40;;;;;;;116.45;41.33;;;8.40;99.90;;;;;;4932925;28;20042;-58
2022/02/10 00:39:29;;;;;;;115.10;41.25;;;8.30;99.90;;;;;;4927661;29;20051;-57
2022/02/10 00:41:55;;;;;;;124.97;41.53;;;8.30;99.90;;;;;;4946204;28;20047;-57
2022/02/10 00:44:21;;;;;;;139.82;43.40;;;8.30;99.90;;;;;;4945137;29;20232;-57
2022/02/10 00:46:47;;;;;;;110.38;39.67;;;8.30;99.90;;;;;;4936640;29;20059;-60
2022/02/10 00:49:13;;;;;;;101.00;38.83;;;8.30;99.90;;;;;;4927210;28;20050;-58
2022/02/10 00:51:39;;;;;;;113.35;38.50;;;8.30;99.90;;;;;;4923153;28;20056;-59
2022/02/10 00:54:05;;;;;;;113.95;40.05;;;8.30;99.90;;;;;;4934341;29;20063;-58
2022/02/10 00:56:32;;;;;;;106.72;37.35;;;8.30;99.90;;;;;;4941021;28;20416;-59
2022/02/10 00:59:10;;;;;;;115.57;40.60;;;8.30;99.90;;;;;;4945126;28;20047;-57
2022/02/10 01:31:52;;;;;;;120.47;37.95;;;8.20;99.90;;;;;;4930593;28;20054;-55
2022/02/10 01:34:18;;;;;;;115.10;37.13;;;8.20;99.90;;;;;;4925083;28;20051;-56
2022/02/10 01:36:44;;;;;;;96.38;34.58;;;8.20;99.90;;;;;;4933761;28;20054;-58
2022/02/10 01:39:10;;;;;;;99.20;35.65;;;8.20;99.90;;;;;;4912407;29;20538;-59
2022/02/10 02:03:55;;;;;;;84.28;34.38;;;8.20;99.90;;;;;;4933413;29;20122;-54
2022/02/10 02:06:29;;;;;;;83.25;33.70;;;8.20;99.90;;;;;;4926139;28;20280;-57
2022/02/10 02:08:58;;;;;;;87.22;32.90;;;8.20;99.90;;;;;;4922332;28;20439;-56
2022/02/10 02:11:26;;;;;;;92.85;36.85;;;8.30;99.90;;;;;;4940708;29;20058;-56
2022/02/10 02:13:52;;;;;;;88.32;36.50;;;8.30;99.90;;;;;;4932692;28;20138;-56
2022/02/10 02:16:18;;;;;;;93.30;37.22;;;8.30;99.90;;;;;;4942130;29;20050;-56
2022/02/10 02:18:45;;;;;;;92.15;36.47;;;8.30;99.90;;;;;;4928227;28;20550;-56
2022/02/10 02:21:18;;;;;;;95.00;38.00;;;8.30;99.90;;;;;;4936049;29;20143;-56
2022/02/10 02:23:44;;;;;;;96.00;39.15;;;8.30;99.90;;;;;;4930977;29;20043;-56
2022/02/10 02:26:15;;;;;;;100.50;39.30;;;8.30;99.90;;;;;;4943420;28;20580;-56
2022/02/10 02:28:45;;;;;;;94.65;40.25;;;8.30;99.90;;;;;;4945231;28;20137;-56
2022/02/10 02:31:17;;;;;;;95.03;38.03;;;8.30;99.90;;;;;;4968535;28;20363;-56
2022/02/10 02:34:09;;;;;;;93.78;39.33;;;8.30;99.90;;;;;;4951931;28;20054;-57
2022/02/10 02:37:17;;;;;;;100.25;40.67;;;8.30;99.90;;;;;;4957915;28;20194;-56
2022/02/10 03:06:39;;;;;;;28.40;13.85;;;8.20;99.90;;;;;;4926728;28;20128;-59
2022/02/10 03:09:12;;;;;;;24.73;13.07;;;8.10;99.90;;;;;;4931176;28;20048;-59
2022/02/10 03:11:41;;;;;;;24.00;11.85;;;8.10;99.90;;;;;;4940634;28;20511;-58
2022/02/10 03:14:11;;;;;;;22.00;10.25;;;8.10;99.90;;;;;;4943053;28;20039;-59
2022/02/10 04:16:24;;;;;;;10.23;6.40;;;7.10;99.90;;;;;;4943522;29;20048;-59
2022/02/10 04:21:47;;;;;;;8.88;5.72;;;7.10;99.90;;;;;;4933175;29;20058;-59
2022/02/10 04:38:03;;;;;;;11.60;6.82;;;7.10;99.90;;;;;;4941836;28;20043;-56
2022/02/10 04:54:28;;;;;;;14.25;8.07;;;7.00;99.90;;;;;;4937959;28;20094;-56
2022/02/10 04:59:46;;;;;;;18.80;9.38;;;7.00;99.90;;;;;;4905337;28;20013;-56
2022/02/10 05:05:38;;;;;;;17.40;9.95;;;7.00;99.90;;;;;;4950673;28;20135;-59
2022/02/10 05:18:29;;;;;;;15.98;9.55;;;6.90;99.90;;;;;;4925121;28;20666;-59
2022/02/10 05:23:57;;;;;;;19.10;10.43;;;6.90;99.90;;;;;;4940173;28;20137;-57
2022/02/10 05:34:42;;;;;;;18.58;10.50;;;6.80;99.90;;;;;;4942628;28;20073;-60
2022/02/10 05:37:08;;;;;;;24.60;11.80;;;6.80;99.90;;;;;;4927431;28;20134;-59
2022/02/10 05:39:39;;;;;;;20.65;11.55;;;6.80;99.90;;;;;;4942052;28;20518;-54
2022/02/10 05:42:23;;;;;;;22.47;11.37;;;6.80;99.90;;;;;;4942217;28;20047;-56
2022/02/10 05:45:10;;;;;;;22.30;11.77;;;6.90;99.90;;;;;;4944355;29;20085;-55
2022/02/10 05:48:42;;;;;;;27.88;12.30;;;6.80;99.90;;;;;;4941596;28;20664;-57
2022/02/10 05:58:05;;;;;;;21.65;12.18;;;6.80;99.90;;;;;;4939027;28;20051;-59
2022/02/10 06:55:15;;;;;;;22.45;12.13;;;6.70;99.90;;;;;;4972519;28;20058;-58
2022/02/10 07:54:37;;;;;;;15.35;9.07;;;6.60;99.90;;;;;;4954643;28;19922;-57
2022/02/10 08:17:55;;;;;;;18.98;10.45;;;6.70;99.90;;;;;;4940464;28;20086;-58
2022/02/10 08:56:28;;;;;;;18.02;10.35;;;6.80;99.90;;;;;;4908473;28;20051;-58
2022/02/10 08:59:23;;;;;;;18.38;10.25;;;6.80;99.90;;;;;;4935838;28;20638;-58
2022/02/10 09:13:05;;;;;;;20.42;10.05;;;7.20;99.90;;;;;;4917406;28;20107;-57
2022/02/10 09:15:51;;;;;;;21.88;9.27;;;7.30;99.90;;;;;;4920927;28;20135;-57
2022/02/10 09:54:34;;;;;;;17.35;6.60;;;7.50;99.90;;;;;;4925158;28;20399;-58
2022/02/10 10:02:05;;;;;;;12.20;5.10;;;7.60;99.90;;;;;;4948057;28;20056;-57
2022/02/10 10:04:48;;;;;;;10.43;5.32;;;7.70;99.90;;;;;;4922747;28;20051;-57
2022/02/10 10:07:29;;;;;;;11.50;5.75;;;7.80;99.90;;;;;;4946987;28;20514;-57
2022/02/10 10:13:37;;;;;;;10.85;5.00;;;7.90;99.90;;;;;;4926014;28;20106;-57
2022/02/10 10:16:42;;;;;;;13.80;5.05;;;8.10;99.90;;;;;;4917030;28;20044;-57
2022/02/10 10:19:25;;;;;;;13.32;4.65;;;8.10;99.90;;;;;;4927848;28;20048;-58
2022/02/10 10:44:33;;;;;;;9.60;3.70;;;8.20;99.90;;;;;;4922703;28;20429;-58
2022/02/10 10:49:55;;;;;;;9.35;3.55;;;10.50;99.90;;;;;;4941365;28;20042;-58
2022/02/10 10:55:28;;;;;;;12.27;3.22;;;10.60;99.90;;;;;;4938726;28;20043;-56
2022/02/10 10:57:55;;;;;;;11.13;3.75;;;10.80;99.90;;;;;;4933659;28;20047;-56
2022/02/10 11:36:25;;;;;;;10.98;2.38;;;12.80;99.90;;;;;;4924956;28;20113;-57
2022/02/10 11:36:28;;;;;;;7.60;2.17;;;11.60;99.90;;;;;;4922974;28;20096;-56
2022/02/10 12:39:24;;;;;;;8.65;3.88;;;10.40;99.90;;;;;;4924624;28;20052;-66
2022/02/10 13:30:30;;;;;;;9.30;1.75;;;9.30;99.90;;;;;;4954991;28;20054;-69
2022/02/10 14:25:51;;;;;;;8.85;2.17;;;8.00;99.90;;;;;;4958778;28;20058;-70
2022/02/10 14:28:18;;;;;;;8.32;2.97;;;8.00;99.90;;;;;;4904641;28;20055;-68
2022/02/10 14:30:45;;;;;;;6.63;2.30;;;8.00;99.90;;;;;;4945286;28;20498;-69
2022/02/10 14:33:11;;;;;;;12.50;2.90;;;7.90;99.90;;;;;;4962764;28;20044;-62
2022/02/10 14:35:51;;;;;;;8.70;2.17;;;7.90;99.90;;;;;;4954526;28;20117;-68
2022/02/10 15:28:56;;;;;;;9.88;3.22;;;6.80;99.90;;;;;;4951793;28;20594;-61
2022/02/10 16:18:47;;;;;;;11.80;2.50;;;6.20;99.90;;;;;;4933210;28;20928;-61
2022/02/10 16:21:18;;;;;;;10.05;2.72;;;6.20;99.90;;;;;;4930665;28;20086;-61
2022/02/10 16:23:47;;;;;;;11.18;2.30;;;6.10;99.90;;;;;;4930094;28;20142;-62
2022/02/10 16:26:16;;;;;;;15.98;2.88;;;6.10;99.90;;;;;;4928635;28;20459;-62
2022/02/10 16:28:44;;;;;;;16.13;2.92;;;6.10;99.90;;;;;;4927013;28;20505;-60
2022/02/10 16:31:12;;;;;;;14.85;2.75;;;6.00;99.90;;;;;;4911470;28;20406;-61
2022/02/10 16:33:42;;;;;;;11.43;2.17;;;6.00;99.90;;;;;;4937537;28;20103;-61
2022/02/10 16:36:16;;;;;;;13.82;2.67;;;6.00;99.90;;;;;;4947190;28;20058;-63
2022/02/10 16:38:46;;;;;;;13.20;2.58;;;6.00;99.90;;;;;;4949670;28;20106;-62
2022/02/10 16:41:13;;;;;;;15.55;3.50;;;6.00;99.90;;;;;;4937935;28;20517;-62
2022/02/10 16:43:39;;;;;;;12.90;2.60;;;5.90;99.90;;;;;;4972488;28;20049;-62
2022/02/10 16:46:09;;;;;;;9.88;2.30;;;5.90;99.90;;;;;;4945194;28;20043;-62
2022/02/10 16:48:36;;;;;;;13.10;2.97;;;5.90;99.90;;;;;;4930821;28;20485;-61
2022/02/10 16:51:07;;;;;;;11.18;2.75;;;5.90;99.90;;;;;;4939544;28;20495;-62
2022/02/10 16:53:34;;;;;;;16.57;2.90;;;5.90;99.90;;;;;;4918397;28;20594;-62
2022/02/10 16:56:13;;;;;;;15.15;2.92;;;5.90;99.90;;;;;;4941272;28;20071;-61
2022/02/10 16:58:50;;;;;;;12.63;2.30;;;5.80;99.90;;;;;;4950699;28;20047;-62
2022/02/10 17:01:39;;;;;;;11.70;2.58;;;5.80;99.90;;;;;;4943698;28;20585;-62
2022/02/10 17:04:32;;;;;;;11.55;2.38;;;5.80;99.90;;;;;;4931187;28;20043;-62
2022/02/10 17:18:26;;;;;;;17.60;3.20;;;5.70;99.90;;;;;;4928541;28;20052;-69
2022/02/10 17:28:40;;;;;;;14.10;2.90;;;5.50;99.90;;;;;;4951418;28;20451;-68
2022/02/10 17:33:39;;;;;;;13.30;2.72;;;5.40;99.90;;;;;;4927554;28;20055;-70
2022/02/10 17:36:13;;;;;;;;;;;5.40;99.90;;;;;;4932071;28;20055;-71
2022/02/10 17:46:28;;;;;;;14.10;3.63;;;5.30;99.90;;;;;;4943647;28;20050;-72
2022/02/10 17:51:57;;;;;;;13.25;3.05;;;5.30;99.90;;;;;;4935707;28;20078;-63
2022/02/10 17:54:25;;;;;;;13.15;4.47;;;5.20;99.90;;;;;;4919413;28;20406;-63
2022/02/10 17:56:51;;;;;;;15.43;3.58;;;5.20;99.90;;;;;;4933040;28;20058;-62
2022/02/10 17:59:20;;;;;;;11.32;4.45;;;5.20;99.90;;;;;;4932277;28;20051;-61
2022/02/10 18:01:48;;;;;;;13.63;4.22;;;5.30;99.90;;;;;;4943118;28;20446;-63
2022/02/10 18:04:16;;;;;;;17.25;4.43;;;5.20;99.90;;;;;;4956661;28;20035;-61
2022/02/10 18:06:45;;;;;;;14.05;4.03;;;5.20;99.90;;;;;;4959191;28;20158;-61
2022/02/10 18:14:16;;;;;;;11.98;4.47;;;5.10;99.90;;;;;;4957843;28;20059;-61
2022/02/10 18:16:56;;;;;;;20.08;3.90;;;5.10;99.90;;;;;;4962062;28;20357;-61
2022/02/10 18:19:48;;;;;;;14.95;3.70;;;5.20;99.90;;;;;;4966819;28;20100;-63
2022/02/10 18:23:02;;;;;;;16.90;3.63;;;5.20;99.90;;;;;;4952773;28;20459;-62
2022/02/10 19:10:10;;;;;;;15.55;3.80;;;5.00;99.90;;;;;;4932494;28;20051;-70
2022/02/10 19:12:49;;;;;;;11.20;3.22;;;4.90;99.90;;;;;;4944084;28;20090;-62
2022/02/10 19:15:22;;;;;;;19.98;3.85;;;4.90;99.90;;;;;;4941487;28;20047;-70
2022/02/10 19:17:50;;;;;;;17.25;3.20;;;4.90;99.90;;;;;;4936899;28;20083;-71
2022/02/10 19:20:20;;;;;;;17.50;3.90;;;4.80;99.90;;;;;;4957500;28;20047;-71
2022/02/10 19:22:46;;;;;;;13.23;3.42;;;4.90;99.90;;;;;;4969431;28;20494;-71
2022/02/10 19:25:15;;;;;;;19.77;3.85;;;4.90;99.90;;;;;;4945177;28;20064;-62
2022/02/10 19:27:43;;;;;;;11.57;3.13;;;4.90;99.90;;;;;;5005963;28;20056;-62
2022/02/10 19:30:12;;;;;;;12.43;3.72;;;4.80;99.90;;;;;;4951145;28;20169;-62
2022/02/10 19:32:43;;;;;;;12.10;3.58;;;4.90;99.90;;;;;;4945028;28;20080;-63
2022/02/10 19:35:11;;;;;;;13.48;3.00;;;4.80;99.90;;;;;;4980445;28;20052;-62
2022/02/10 19:37:37;;;;;;;14.02;3.72;;;4.80;99.90;;;;;;4950822;28;20055;-65
2022/02/10 19:40:04;;;;;;;15.77;3.08;;;4.80;99.90;;;;;;5005373;28;20083;-70
2022/02/10 19:42:34;;;;;;;13.90;3.03;;;4.80;99.90;;;;;;4995931;28;20567;-71
2022/02/10 19:45:03;;;;;;;11.45;3.03;;;4.80;99.90;;;;;;4963658;28;20446;-70
2022/02/10 19:47:31;;;;;;;10.27;2.58;;;4.80;99.90;;;;;;4939639;28;20049;-70
2022/02/10 19:49:59;;;;;;;13.68;2.90;;;4.70;99.90;;;;;;4931932;28;20065;-63
2022/02/10 19:52:25;;;;;;;15.75;2.92;;;4.70;99.90;;;;;;4922396;28;20502;-71
2022/02/10 19:54:56;;;;;;;15.48;2.65;;;4.70;99.90;;;;;;4958982;28;20577;-70
2022/02/10 19:57:24;;;;;;;11.60;2.88;;;4.70;99.90;;;;;;5004391;28;20044;-70
2022/02/10 19:59:52;;;;;;;12.48;2.50;;;4.70;99.90;;;;;;4959703;28;20481;-70
2022/02/10 20:02:21;;;;;;;10.32;2.40;;;4.70;99.90;;;;;;4949391;28;20073;-71
2022/02/10 20:04:47;;;;;;;10.30;2.60;;;4.70;99.90;;;;;;4971269;28;20085;-71
2022/02/10 20:07:14;;;;;;;14.48;2.78;;;4.70;99.90;;;;;;4955443;28;20043;-71
2022/02/10 20:09:41;;;;;;;12.98;2.78;;;4.70;99.90;;;;;;4989734;28;20043;-70
2022/02/10 20:12:07;;;;;;;13.25;2.65;;;4.70;99.90;;;;;;4981353;28;20040;-70
2022/02/10 20:14:33;;;;;;;10.50;3.13;;;4.70;99.90;;;;;;4933196;28;20588;-72
2022/02/10 20:16:59;;;;;;;17.52;3.15;;;4.60;99.90;;;;;;4928251;28;20502;-72
2022/02/10 20:19:26;;;;;;;13.30;3.22;;;4.60;99.90;;;;;;4922185;28;20058;-63
2022/02/10 20:21:52;;;;;;;12.23;2.60;;;4.60;99.90;;;;;;4920176;28;20043;-73
2022/02/10 20:24:18;;;;;;;11.65;2.95;;;4.60;99.90;;;;;;4948817;28;20043;-70
2022/02/10 20:26:45;;;;;;;16.63;2.78;;;4.60;99.90;;;;;;4925890;28;20065;-62
2022/02/10 20:29:11;;;;;;;14.00;2.70;;;4.60;99.90;;;;;;4936430;28;20066;-62
2022/02/10 20:31:41;;;;;;;12.40;3.00;;;4.60;99.90;;;;;;4941883;28;20091;-62
2022/02/10 20:34:13;;;;;;;14.10;2.67;;;4.50;99.90;;;;;;4934857;28;20058;-62
2022/02/10 20:36:40;;;;;;;9.27;2.42;;;4.50;99.90;;;;;;4983787;28;20130;-61
2022/02/10 20:39:08;;;;;;;12.38;2.50;;;4.50;99.90;;;;;;4933068;28;20527;-70
2022/02/10 20:41:36;;;;;;;16.90;2.88;;;4.50;99.90;;;;;;5005036;28;20482;-70
2022/02/10 20:44:03;;;;;;;7.03;2.42;;;4.50;99.90;;;;;;4957319;28;20146;-70
2022/02/10 20:46:32;;;;;;;10.57;2.80;;;4.50;99.90;;;;;;4923659;28;20063;-71
2022/02/10 20:49:01;;;;;;;12.68;2.28;;;4.40;99.90;;;;;;4981035;28;20045;-70
2022/02/10 20:51:28;;;;;;;12.73;2.67;;;4.50;99.90;;;;;;4954490;28;20539;-62
2022/02/10 20:53:54;;;;;;;14.60;3.38;;;4.40;99.90;;;;;;4932716;28;20124;-62
2022/02/10 20:56:21;;;;;;;8.48;2.42;;;4.50;99.90;;;;;;4955782;28;20517;-71
2022/02/10 20:58:54;;;;;;;10.77;2.33;;;4.40;99.90;;;;;;4973313;28;20040;-62
2022/02/10 21:01:21;;;;;;;14.00;3.33;;;4.40;99.90;;;;;;4970941;28;20122;-62
2022/02/10 21:03:47;;;;;;;13.00;3.08;;;4.40;99.90;;;;;;4996354;28;20151;-62
2022/02/10 21:09:04;;;;;;;12.70;2.45;;;4.40;99.90;;;;;;4938916;28;20128;-69
2022/02/10 21:11:30;;;;;;;11.00;3.08;;;4.50;99.90;;;;;;4954679;28;20060;-71
2022/02/10 21:13:57;;;;;;;12.95;3.00;;;4.40;99.90;;;;;;4964256;28;20052;-70
2022/02/10 21:16:25;;;;;;;13.02;2.90;;;4.50;99.90;;;;;;4956424;28;20126;-72
2022/02/10 21:18:52;;;;;;;12.85;2.55;;;4.50;99.90;;;;;;4974636;28;20047;-62
2022/02/10 21:21:19;;;;;;;14.68;3.45;;;4.50;99.90;;;;;;4960177;28;20045;-62
2022/02/10 21:23:54;;;;;;;13.68;3.30;;;4.50;99.90;;;;;;4966920;28;20043;-62
2022/02/10 21:26:27;;;;;;;9.27;2.28;;;4.50;99.90;;;;;;4959864;28;20516;-67
2022/02/10 21:28:58;;;;;;;14.35;2.63;;;4.50;99.90;;;;;;4966765;28;20321;-62
2022/02/10 21:31:24;;;;;;;10.70;2.38;;;4.50;99.90;;;;;;4940681;28;20084;-70
2022/02/10 21:34:04;;;;;;;16.10;2.88;;;4.50;99.90;;;;;;4966737;28;20095;-62
2022/02/10 21:39:31;;;;;;;8.98;2.25;;;4.50;99.90;;;;;;5001467;28;20615;-62
2022/02/10 22:19:16;;;;;;;10.85;2.90;;;4.10;99.90;;;;;;4969859;28;20045;-71
2022/02/10 22:21:52;;;;;;;11.43;3.55;;;4.00;99.90;;;;;;4962696;28;20470;-71
2022/02/10 22:24:19;;;;;;;12.50;3.47;;;4.00;99.90;;;;;;4977843;28;20135;-71
2022/02/10 22:26:47;;;;;;;11.80;3.45;;;3.90;99.90;;;;;;4978555;28;20055;-71
2022/02/10 22:34:38;;;;;;;12.73;4.00;;;3.80;99.90;;;;;;4966844;28;20528;-71
2022/02/10 22:37:08;;;;;;;14.65;4.30;;;3.70;99.90;;;;;;4958867;28;20058;-71
2022/02/10 22:39:40;;;;;;;12.52;4.03;;;3.70;99.90;;;;;;4950424;28;20360;-70
2022/02/10 22:42:07;;;;;;;15.50;4.38;;;3.70;99.90;;;;;;4927394;28;20051;-70
2022/02/10 22:44:34;;;;;;;12.63;5.20;;;3.70;99.90;;;;;;4972752;28;20060;-70
2022/02/10 22:47:01;;;;;;;13.48;4.40;;;3.60;99.90;;;;;;4913680;28;20047;-70
2022/02/10 22:49:28;;;;;;;12.73;3.92;;;3.60;99.90;;;;;;4910869;28;20519;-70
2022/02/10 22:51:54;;;;;;;9.45;3.88;;;3.60;99.90;;;;;;4897551;28;20483;-70
2022/02/10 22:54:20;;;;;;;16.13;4.45;;;3.60;99.90;;;;;;4882756;28;20106;-71
2022/02/10 22:56:47;;;;;;;8.27;4.18;;;3.50;99.90;;;;;;4905375;28;20493;-71
2022/02/10 22:59:14;;;;;;;15.25;4.57;;;3.50;99.90;;;;;;4977853;28;20047;-69
2022/02/10 23:01:41;;;;;;;12.85;3.75;;;3.50;99.90;;;;;;4978551;28;20400;-70
2022/02/10 23:04:07;;;;;;;11.52;4.50;;;3.40;99.90;;;;;;4952658;28;20450;-70
2022/02/10 23:06:35;;;;;;;15.13;4.10;;;3.50;99.90;;;;;;4960198;28;20606;-70
2022/02/10 23:09:23;;;;;;;15.40;4.40;;;3.50;99.90;;;;;;4973748;28;20063;-70
2022/02/10 23:11:48;;;;;;;13.50;3.97;;;3.50;99.90;;;;;;4918953;28;20107;-69
2022/02/10 23:14:15;;;;;;;14.25;4.57;;;3.50;99.90;;;;;;4930129;28;20136;-70
2022/02/10 23:16:41;;;;;;;16.38;5.63;;;3.60;99.90;;;;;;4964317;28;20527;-70
2022/02/10 23:19:08;;;;;;;11.52;3.85;;;3.60;99.90;;;;;;4959861;28;20047;-70
2022/02/10 23:21:34;;;;;;;15.68;4.75;;;3.60;99.90;;;;;;4908693;28;20640;-70
2022/02/10 23:24:00;;;;;;;12.05;3.78;;;3.60;99.90;;;;;;4928511;28;20052;-70
2022/02/10 23:26:28;;;;;;;12.90;3.88;;;3.70;99.90;;;;;;4940764;28;20530;-70
2022/02/10 23:28:56;;;;;;;12.43;4.25;;;3.70;99.90;;;;;;4961244;28;20061;-70
2022/02/10 23:31:24;;;;;;;11.40;3.60;;;3.70;99.90;;;;;;4934738;28;20462;-70
2022/02/10 23:33:55;;;;;;;18.58;4.32;;;3.90;99.90;;;;;;4918012;28;20048;-71
2022/02/10 23:37:10;;;;;;;13.73;5.03;;;3.80;99.90;;;;;;4899249;28;20078;-71
2022/02/10 23:39:22;;;;;;;15.00;4.90;;;3.90;99.90;;;;;;4939590;28;20048;-71
2022/02/10 23:42:27;;;;;;;13.52;4.43;;;3.90;99.90;;;;;;4909197;28;20056;-71
2022/02/10 23:44:48;;;;;;;13.00;4.32;;;3.90;99.90;;;;;;4914972;28;20480;-70
2022/02/10 23:47:23;;;;;;;12.77;4.22;;;3.90;99.90;;;;;;4927541;28;20044;-71
2022/02/10 23:49:52;;;;;;;12.07;4.43;;;3.80;99.90;;;;;;4912990;29;20079;-70
2022/02/10 23:52:19;;;;;;;10.85;4.45;;;3.80;99.90;;;;;;4910344;29;20040;-70
2022/02/10 23:54:49;;;;;;;13.35;5.25;;;3.70;99.90;;;;;;4898440;28;20376;-71
